BAW6HL LIRF-EFHK
Flight info
| Callsign | BAW6HL |
|---|---|
| Flight time | 2h 49m |
| Altitude | 38000 |
| Route | SOVAN DCT AMTEL DCT OBEDI/N0481F390 DCT RASAN DCT PENOR DCT ALAMI DCT OKEVU DCT EVADI Y370 DIVAM |
| Aircraft | A35K/H-SDE2E3GHIJ3J4J5LM1ORWXY/LB1D1 |
Departure
| Time | 2026-05-06 17:05 |
|---|---|
| Airport | Rome–Fiumicino Leonardo da Vinci International Airport (LIRF) |
Arrival
| Time | 2026-05-06 19:54 |
|---|---|
| Airport | Helsinki Vantaa Airport (EFHK) |
| Time | Latitude | Longitude | Altitude | Speed | Heading |
|---|---|---|---|---|---|
| 2026-05-06 15:41 | 41.79462 | 12.24121 | 20 ft | 0 kts | 25° |
| 2026-05-06 16:35 | 41.79461 | 12.24121 | 20 ft | 0 kts | 25° |
| 2026-05-06 16:35 | 41.79461 | 12.24120 | 20 ft | 0 kts | 25° |
| 2026-05-06 16:45 | 41.79465 | 12.24123 | 22 ft | 4 kts | 25° |
| 2026-05-06 16:45 | 41.79480 | 12.24132 | 23 ft | 3 kts | 25° |
| 2026-05-06 16:45 | 41.79456 | 12.24117 | 21 ft | 4 kts | 25° |
| 2026-05-06 16:46 | 41.79432 | 12.24102 | 22 ft | 4 kts | 25° |
| 2026-05-06 16:46 | 41.79407 | 12.24087 | 21 ft | 4 kts | 21° |
| 2026-05-06 16:46 | 41.79382 | 12.24077 | 21 ft | 4 kts | 2° |
| 2026-05-06 16:46 | 41.79357 | 12.24082 | 21 ft | 4 kts | 318° |
| 2026-05-06 16:47 | 41.79350 | 12.24095 | 20 ft | 1 kts | 281° |
| 2026-05-06 16:47 | 41.79351 | 12.24089 | 20 ft | 1 kts | 281° |
| 2026-05-06 16:47 | 41.79351 | 12.24085 | 20 ft | 0 kts | 281° |
| 2026-05-06 16:47 | 41.79352 | 12.24081 | 20 ft | 0 kts | 281° |
| 2026-05-06 16:48 | 41.79352 | 12.24080 | 20 ft | 0 kts | 281° |
| 2026-05-06 16:51 | 41.79352 | 12.24062 | 20 ft | 4 kts | 266° |
| 2026-05-06 16:51 | 41.79343 | 12.24004 | 21 ft | 9 kts | 257° |
| 2026-05-06 16:51 | 41.79342 | 12.23925 | 22 ft | 7 kts | 295° |
| 2026-05-06 16:51 | 41.79380 | 12.23880 | 24 ft | 8 kts | 334° |
| 2026-05-06 16:52 | 41.79443 | 12.23848 | 23 ft | 12 kts | 341° |
| 2026-05-06 16:52 | 41.79531 | 12.23811 | 23 ft | 14 kts | 343° |
| 2026-05-06 16:52 | 41.79634 | 12.23768 | 23 ft | 17 kts | 342° |
| 2026-05-06 16:52 | 41.79751 | 12.23720 | 20 ft | 17 kts | 343° |
| 2026-05-06 16:53 | 41.79827 | 12.23689 | 24 ft | 12 kts | 343° |
| 2026-05-06 16:53 | 41.79904 | 12.23725 | 23 ft | 13 kts | 51° |
| 2026-05-06 16:53 | 41.79938 | 12.23835 | 20 ft | 14 kts | 70° |
| 2026-05-06 16:53 | 41.79973 | 12.23965 | 22 ft | 16 kts | 73° |
| 2026-05-06 16:54 | 41.79997 | 12.24109 | 23 ft | 16 kts | 73° |
| 2026-05-06 16:54 | 41.80033 | 12.24237 | 21 ft | 13 kts | 69° |
| 2026-05-06 16:54 | 41.80066 | 12.24355 | 21 ft | 13 kts | 69° |
| 2026-05-06 16:54 | 41.80098 | 12.24472 | 21 ft | 14 kts | 71° |
| 2026-05-06 16:55 | 41.80129 | 12.24590 | 23 ft | 14 kts | 70° |
| 2026-05-06 16:55 | 41.80165 | 12.24726 | 21 ft | 15 kts | 70° |
| 2026-05-06 16:55 | 41.80196 | 12.24856 | 22 ft | 14 kts | 78° |
| 2026-05-06 16:55 | 41.80204 | 12.24982 | 21 ft | 13 kts | 86° |
| 2026-05-06 16:56 | 41.80214 | 12.25093 | 20 ft | 11 kts | 75° |
| 2026-05-06 16:56 | 41.80240 | 12.25197 | 21 ft | 12 kts | 71° |
| 2026-05-06 16:56 | 41.80267 | 12.25300 | 20 ft | 13 kts | 70° |
| 2026-05-06 16:56 | 41.80298 | 12.25408 | 25 ft | 12 kts | 69° |
| 2026-05-06 16:57 | 41.80329 | 12.25518 | 22 ft | 13 kts | 69° |
| 2026-05-06 16:57 | 41.80364 | 12.25641 | 23 ft | 14 kts | 69° |
| 2026-05-06 16:57 | 41.80398 | 12.25759 | 22 ft | 13 kts | 69° |
| 2026-05-06 16:57 | 41.80431 | 12.25876 | 25 ft | 17 kts | 69° |
| 2026-05-06 16:58 | 41.80493 | 12.26104 | 26 ft | 32 kts | 70° |
| 2026-05-06 16:58 | 41.80566 | 12.26370 | 22 ft | 29 kts | 70° |
| 2026-05-06 16:58 | 41.80631 | 12.26609 | 24 ft | 22 kts | 70° |
| 2026-05-06 16:58 | 41.80679 | 12.26786 | 21 ft | 15 kts | 70° |
| 2026-05-06 16:59 | 41.80693 | 12.26837 | 20 ft | 5 kts | 70° |
| 2026-05-06 16:59 | 41.80705 | 12.26883 | 20 ft | 3 kts | 70° |
| 2026-05-06 16:59 | 41.80714 | 12.26913 | 20 ft | 4 kts | 70° |
| 2026-05-06 16:59 | 41.80729 | 12.26970 | 20 ft | 10 kts | 70° |
| 2026-05-06 17:00 | 41.80760 | 12.27080 | 20 ft | 14 kts | 64° |
| 2026-05-06 17:00 | 41.80816 | 12.27131 | 23 ft | 7 kts | 0° |
| 2026-05-06 17:00 | 41.80865 | 12.27114 | 19 ft | 8 kts | 340° |
| 2026-05-06 17:00 | 41.80869 | 12.27112 | 19 ft | 0 kts | 340° |
| 2026-05-06 17:01 | 41.80870 | 12.27112 | 19 ft | 0 kts | 340° |
| 2026-05-06 17:01 | 41.80874 | 12.27110 | 19 ft | 0 kts | 340° |
| 2026-05-06 17:02 | 41.80877 | 12.27109 | 20 ft | 1 kts | 340° |
| 2026-05-06 17:02 | 41.80879 | 12.27108 | 19 ft | 1 kts | 340° |
| 2026-05-06 17:03 | 41.80882 | 12.27106 | 22 ft | 3 kts | 340° |
| 2026-05-06 17:03 | 41.80932 | 12.27083 | 19 ft | 9 kts | 340° |
| 2026-05-06 17:03 | 41.80980 | 12.27032 | 21 ft | 6 kts | 295° |
| 2026-05-06 17:03 | 41.80976 | 12.27005 | 19 ft | 3 kts | 255° |
| 2026-05-06 17:04 | 41.80969 | 12.26969 | 19 ft | 6 kts | 255° |
| 2026-05-06 17:04 | 41.80960 | 12.26930 | 19 ft | 0 kts | 251° |
| 2026-05-06 17:04 | 41.80957 | 12.26918 | 20 ft | 14 kts | 251° |
| 2026-05-06 17:04 | 41.80841 | 12.26498 | 24 ft | 81 kts | 249° |
| 2026-05-06 17:05 | 41.80574 | 12.25538 | 23 ft | 137 kts | 249° |
| 2026-05-06 17:05 | 41.80191 | 12.24149 | 188 ft | 171 kts | 248° |
| 2026-05-06 17:05 | 41.79760 | 12.22613 | 730 ft | 177 kts | 248° |
| 2026-05-06 17:05 | 41.79350 | 12.21103 | 1576 ft | 166 kts | 248° |
| 2026-05-06 17:06 | 41.79004 | 12.19649 | 2225 ft | 165 kts | 257° |
| 2026-05-06 17:06 | 41.79078 | 12.18128 | 2792 ft | 168 kts | 286° |
| 2026-05-06 17:06 | 41.79751 | 12.16764 | 3068 ft | 189 kts | 323° |
| 2026-05-06 17:06 | 41.80880 | 12.15704 | 3312 ft | 211 kts | 314° |
| 2026-05-06 17:07 | 41.81936 | 12.14189 | 3560 ft | 235 kts | 318° |
| 2026-05-06 17:07 | 41.83391 | 12.12991 | 3936 ft | 256 kts | 334° |
| 2026-05-06 17:07 | 41.85066 | 12.12021 | 4515 ft | 267 kts | 336° |
| 2026-05-06 17:07 | 41.86801 | 12.11060 | 5251 ft | 273 kts | 336° |
| 2026-05-06 17:08 | 41.88552 | 12.10095 | 6007 ft | 278 kts | 336° |
| 2026-05-06 17:08 | 41.90351 | 12.09100 | 6809 ft | 283 kts | 336° |
| 2026-05-06 17:08 | 41.92190 | 12.08082 | 7650 ft | 287 kts | 336° |
| 2026-05-06 17:08 | 41.94046 | 12.07056 | 8504 ft | 291 kts | 336° |
| 2026-05-06 17:09 | 41.95969 | 12.06165 | 9289 ft | 297 kts | 347° |
| 2026-05-06 17:09 | 41.98041 | 12.05832 | 10118 ft | 301 kts | 355° |
| 2026-05-06 17:09 | 42.00138 | 12.05647 | 10979 ft | 303 kts | 354° |
| 2026-05-06 17:09 | 42.02249 | 12.05462 | 11861 ft | 305 kts | 354° |
| 2026-05-06 17:10 | 42.04364 | 12.05267 | 12721 ft | 306 kts | 353° |
| 2026-05-06 17:10 | 42.06436 | 12.05070 | 13466 ft | 311 kts | 353° |
| 2026-05-06 17:10 | 42.08607 | 12.04861 | 14177 ft | 315 kts | 353° |
| 2026-05-06 17:10 | 42.10814 | 12.04650 | 14853 ft | 321 kts | 353° |
| 2026-05-06 17:11 | 42.13055 | 12.04431 | 15539 ft | 325 kts | 352° |
| 2026-05-06 17:11 | 42.15325 | 12.04208 | 16215 ft | 329 kts | 352° |
| 2026-05-06 17:11 | 42.17590 | 12.03978 | 16850 ft | 333 kts | 351° |
| 2026-05-06 17:11 | 42.19896 | 12.03570 | 17502 ft | 335 kts | 347° |
| 2026-05-06 17:12 | 42.22212 | 12.03053 | 18148 ft | 339 kts | 346° |
| 2026-05-06 17:12 | 42.24550 | 12.02522 | 18758 ft | 343 kts | 346° |
| 2026-05-06 17:12 | 42.26916 | 12.01986 | 19397 ft | 346 kts | 346° |
| 2026-05-06 17:12 | 42.29307 | 12.01446 | 20036 ft | 349 kts | 346° |
| 2026-05-06 17:13 | 42.31713 | 12.00901 | 20648 ft | 352 kts | 346° |
| 2026-05-06 17:13 | 42.34140 | 12.00353 | 21196 ft | 358 kts | 346° |
| 2026-05-06 17:13 | 42.36634 | 11.99786 | 21489 ft | 370 kts | 346° |
| 2026-05-06 17:13 | 42.39226 | 11.99201 | 21775 ft | 384 kts | 346° |
| 2026-05-06 17:14 | 42.41902 | 11.98595 | 22066 ft | 397 kts | 346° |
| 2026-05-06 17:14 | 42.44664 | 11.97971 | 22359 ft | 409 kts | 346° |
| 2026-05-06 17:14 | 42.47474 | 11.97335 | 22646 ft | 421 kts | 346° |
| 2026-05-06 17:14 | 42.50398 | 11.96675 | 23004 ft | 430 kts | 346° |
| 2026-05-06 17:15 | 42.53369 | 11.96005 | 23507 ft | 435 kts | 346° |
| 2026-05-06 17:15 | 42.56370 | 11.95328 | 24031 ft | 440 kts | 346° |
| 2026-05-06 17:15 | 42.59324 | 11.94660 | 24511 ft | 444 kts | 346° |
| 2026-05-06 17:15 | 42.62394 | 11.93965 | 24980 ft | 449 kts | 345° |
| 2026-05-06 17:16 | 42.65489 | 11.93264 | 25477 ft | 453 kts | 345° |
| 2026-05-06 17:16 | 42.68624 | 11.92551 | 25932 ft | 459 kts | 345° |
| 2026-05-06 17:16 | 42.71782 | 11.91833 | 26413 ft | 462 kts | 345° |
| 2026-05-06 17:16 | 42.74970 | 11.91107 | 26889 ft | 466 kts | 345° |
| 2026-05-06 17:17 | 42.78180 | 11.90374 | 27343 ft | 470 kts | 345° |
| 2026-05-06 17:17 | 42.81368 | 11.89595 | 27767 ft | 472 kts | 342° |
| 2026-05-06 17:17 | 42.84481 | 11.88285 | 28215 ft | 467 kts | 330° |
| 2026-05-06 17:17 | 42.87426 | 11.86420 | 28665 ft | 466 kts | 327° |
| 2026-05-06 17:18 | 42.90312 | 11.84379 | 29087 ft | 468 kts | 325° |
| 2026-05-06 17:18 | 42.93180 | 11.82254 | 29541 ft | 470 kts | 324° |
| 2026-05-06 17:18 | 42.96054 | 11.80092 | 29935 ft | 473 kts | 324° |
| 2026-05-06 17:18 | 42.98948 | 11.77916 | 30328 ft | 476 kts | 324° |
| 2026-05-06 17:19 | 43.01859 | 11.75744 | 30746 ft | 479 kts | 324° |
| 2026-05-06 17:19 | 43.04797 | 11.73567 | 31143 ft | 481 kts | 324° |
| 2026-05-06 17:19 | 43.07743 | 11.71392 | 31465 ft | 484 kts | 325° |
| 2026-05-06 17:19 | 43.10676 | 11.69231 | 31804 ft | 486 kts | 325° |
| 2026-05-06 17:20 | 43.13661 | 11.67034 | 32125 ft | 488 kts | 325° |
| 2026-05-06 17:20 | 43.16726 | 11.64961 | 32417 ft | 496 kts | 331° |
| 2026-05-06 17:20 | 43.20050 | 11.63475 | 32693 ft | 508 kts | 341° |
| 2026-05-06 17:20 | 43.23580 | 11.62798 | 32981 ft | 520 kts | 352° |
| 2026-05-06 17:21 | 43.27229 | 11.63063 | 33219 ft | 532 kts | 5° |
| 2026-05-06 17:21 | 43.30872 | 11.64155 | 33454 ft | 538 kts | 10° |
| 2026-05-06 17:21 | 43.34492 | 11.65500 | 33790 ft | 539 kts | 12° |
| 2026-05-06 17:21 | 43.38089 | 11.66939 | 34141 ft | 539 kts | 12° |
| 2026-05-06 17:22 | 43.41634 | 11.68388 | 34445 ft | 539 kts | 12° |
| 2026-05-06 17:22 | 43.45220 | 11.69849 | 34819 ft | 537 kts | 12° |
| 2026-05-06 17:22 | 43.48795 | 11.71290 | 35260 ft | 533 kts | 12° |
| 2026-05-06 17:22 | 43.52312 | 11.72695 | 36071 ft | 519 kts | 12° |
| 2026-05-06 17:23 | 43.55746 | 11.74057 | 36850 ft | 508 kts | 12° |
| 2026-05-06 17:23 | 43.59121 | 11.75390 | 37347 ft | 502 kts | 12° |
| 2026-05-06 17:23 | 43.62467 | 11.76707 | 37761 ft | 498 kts | 12° |
| 2026-05-06 17:23 | 43.65785 | 11.78013 | 37903 ft | 494 kts | 12° |
| 2026-05-06 17:24 | 43.69075 | 11.79309 | 37918 ft | 491 kts | 12° |
| 2026-05-06 17:24 | 43.75602 | 11.81883 | 37914 ft | 491 kts | 12° |
| 2026-05-06 17:25 | 43.82181 | 11.84491 | 37905 ft | 492 kts | 12° |
| 2026-05-06 17:25 | 43.88770 | 11.87104 | 37898 ft | 492 kts | 12° |
| 2026-05-06 17:26 | 43.95349 | 11.89723 | 37893 ft | 492 kts | 12° |
| 2026-05-06 17:26 | 44.01894 | 11.92339 | 37888 ft | 493 kts | 12° |
| 2026-05-06 17:27 | 44.08479 | 11.94975 | 37884 ft | 493 kts | 12° |
| 2026-05-06 17:27 | 44.15060 | 11.97613 | 37890 ft | 492 kts | 12° |
| 2026-05-06 17:28 | 44.21596 | 12.00244 | 37887 ft | 493 kts | 12° |
| 2026-05-06 17:28 | 44.28180 | 12.02899 | 37885 ft | 493 kts | 12° |
| 2026-05-06 17:29 | 44.34761 | 12.05559 | 37888 ft | 492 kts | 12° |
| 2026-05-06 17:29 | 44.41295 | 12.08206 | 37885 ft | 492 kts | 12° |
| 2026-05-06 17:30 | 44.47865 | 12.10870 | 37889 ft | 491 kts | 12° |
| 2026-05-06 17:30 | 44.54428 | 12.13539 | 37878 ft | 491 kts | 12° |
| 2026-05-06 17:31 | 44.60994 | 12.16216 | 37889 ft | 491 kts | 12° |
| 2026-05-06 17:31 | 44.67514 | 12.18880 | 37887 ft | 491 kts | 12° |
| 2026-05-06 17:32 | 44.74080 | 12.21572 | 37891 ft | 491 kts | 12° |
| 2026-05-06 17:32 | 44.80632 | 12.24265 | 37884 ft | 490 kts | 12° |
| 2026-05-06 17:33 | 44.87177 | 12.26958 | 37886 ft | 490 kts | 12° |
| 2026-05-06 17:33 | 44.93719 | 12.29652 | 37884 ft | 489 kts | 12° |
| 2026-05-06 17:34 | 45.00205 | 12.32333 | 37889 ft | 489 kts | 12° |
| 2026-05-06 17:34 | 45.06742 | 12.35045 | 37884 ft | 489 kts | 13° |
| 2026-05-06 17:35 | 45.13260 | 12.37756 | 37891 ft | 489 kts | 13° |
| 2026-05-06 17:35 | 45.19783 | 12.40472 | 37890 ft | 489 kts | 13° |
| 2026-05-06 17:36 | 45.29520 | 12.44543 | 37887 ft | 488 kts | 13° |
| 2026-05-06 17:36 | 45.36041 | 12.47277 | 37884 ft | 488 kts | 13° |
| 2026-05-06 17:37 | 45.42556 | 12.50012 | 37886 ft | 489 kts | 13° |
| 2026-05-06 17:37 | 45.49073 | 12.52756 | 37888 ft | 488 kts | 13° |
| 2026-05-06 17:38 | 45.55584 | 12.55503 | 37889 ft | 487 kts | 13° |
| 2026-05-06 17:38 | 45.62042 | 12.58235 | 37890 ft | 488 kts | 13° |
| 2026-05-06 17:39 | 45.68554 | 12.60997 | 37894 ft | 488 kts | 13° |
| 2026-05-06 17:39 | 45.75064 | 12.63765 | 37899 ft | 488 kts | 13° |
| 2026-05-06 17:40 | 45.81565 | 12.66536 | 37901 ft | 488 kts | 13° |
| 2026-05-06 17:40 | 45.88069 | 12.69315 | 37897 ft | 488 kts | 13° |
| 2026-05-06 17:41 | 45.94570 | 12.72100 | 37902 ft | 487 kts | 13° |
| 2026-05-06 17:41 | 46.01024 | 12.74874 | 37907 ft | 487 kts | 13° |
| 2026-05-06 17:42 | 46.07529 | 12.77676 | 37906 ft | 488 kts | 13° |
| 2026-05-06 17:42 | 46.14032 | 12.80476 | 37900 ft | 488 kts | 13° |
| 2026-05-06 17:43 | 46.20499 | 12.83271 | 37896 ft | 488 kts | 13° |
| 2026-05-06 17:43 | 46.27008 | 12.86096 | 37899 ft | 489 kts | 13° |
| 2026-05-06 17:44 | 46.33519 | 12.88927 | 37900 ft | 488 kts | 13° |
| 2026-05-06 17:44 | 46.40023 | 12.91763 | 37904 ft | 488 kts | 13° |
| 2026-05-06 17:45 | 46.46486 | 12.94587 | 37904 ft | 488 kts | 14° |
| 2026-05-06 17:45 | 46.52985 | 12.97428 | 37905 ft | 488 kts | 14° |
| 2026-05-06 17:46 | 46.59488 | 13.00280 | 37913 ft | 489 kts | 14° |
| 2026-05-06 17:46 | 46.65998 | 13.03143 | 37905 ft | 489 kts | 14° |
| 2026-05-06 17:47 | 46.72513 | 13.06019 | 37901 ft | 489 kts | 14° |
| 2026-05-06 17:47 | 46.78978 | 13.08881 | 37868 ft | 489 kts | 14° |
| 2026-05-06 17:48 | 46.85496 | 13.11771 | 37849 ft | 489 kts | 14° |
| 2026-05-06 17:48 | 46.92009 | 13.14663 | 37850 ft | 490 kts | 14° |
| 2026-05-06 17:49 | 46.98530 | 13.17572 | 37887 ft | 490 kts | 14° |
| 2026-05-06 17:49 | 47.05066 | 13.20496 | 37851 ft | 491 kts | 14° |
| 2026-05-06 17:50 | 47.11590 | 13.23418 | 37844 ft | 491 kts | 14° |
| 2026-05-06 17:50 | 47.18083 | 13.26337 | 37835 ft | 491 kts | 14° |
| 2026-05-06 17:51 | 47.24623 | 13.29280 | 37828 ft | 492 kts | 14° |
| 2026-05-06 17:51 | 47.31166 | 13.32232 | 37822 ft | 492 kts | 14° |
| 2026-05-06 17:52 | 47.37727 | 13.35184 | 37812 ft | 493 kts | 14° |
| 2026-05-06 17:52 | 47.44292 | 13.38093 | 37805 ft | 493 kts | 13° |
| 2026-05-06 17:53 | 47.50870 | 13.41011 | 37806 ft | 494 kts | 13° |
| 2026-05-06 17:53 | 47.57447 | 13.43946 | 37792 ft | 494 kts | 13° |
| 2026-05-06 17:54 | 47.63988 | 13.46878 | 37786 ft | 494 kts | 13° |
| 2026-05-06 17:54 | 47.70577 | 13.49836 | 37788 ft | 495 kts | 13° |
| 2026-05-06 17:55 | 47.77165 | 13.52805 | 37784 ft | 495 kts | 13° |
| 2026-05-06 17:55 | 47.83768 | 13.55785 | 37777 ft | 496 kts | 13° |
| 2026-05-06 17:56 | 47.90373 | 13.58776 | 37766 ft | 496 kts | 14° |
| 2026-05-06 17:56 | 47.96977 | 13.61778 | 37747 ft | 497 kts | 14° |
| 2026-05-06 17:57 | 48.03596 | 13.64793 | 37859 ft | 497 kts | 14° |
| 2026-05-06 17:57 | 48.06901 | 13.66300 | 38072 ft | 497 kts | 14° |
| 2026-05-06 17:57 | 48.10203 | 13.67810 | 38353 ft | 495 kts | 14° |
| 2026-05-06 17:58 | 48.13453 | 13.69296 | 38546 ft | 495 kts | 14° |
| 2026-05-06 17:58 | 48.16755 | 13.70808 | 38698 ft | 496 kts | 14° |
| 2026-05-06 17:58 | 48.23347 | 13.73834 | 38749 ft | 495 kts | 14° |
| 2026-05-06 17:59 | 48.29940 | 13.76866 | 38739 ft | 495 kts | 14° |
| 2026-05-06 17:59 | 48.36527 | 13.79906 | 38730 ft | 495 kts | 14° |
| 2026-05-06 18:00 | 48.43145 | 13.82968 | 38733 ft | 502 kts | 14° |
| 2026-05-06 18:00 | 48.49877 | 13.86092 | 38733 ft | 510 kts | 14° |
| 2026-05-06 18:01 | 48.56722 | 13.89273 | 38742 ft | 519 kts | 14° |
| 2026-05-06 18:01 | 48.63670 | 13.92515 | 38740 ft | 525 kts | 14° |
| 2026-05-06 18:02 | 48.70579 | 13.95753 | 38738 ft | 523 kts | 14° |
| 2026-05-06 18:02 | 48.77527 | 13.99012 | 38739 ft | 523 kts | 14° |
| 2026-05-06 18:03 | 48.84480 | 14.02286 | 38739 ft | 523 kts | 14° |
| 2026-05-06 18:03 | 48.91421 | 14.05564 | 38746 ft | 522 kts | 14° |
| 2026-05-06 18:04 | 48.98354 | 14.08849 | 38748 ft | 521 kts | 14° |
| 2026-05-06 18:04 | 49.05230 | 14.12116 | 38747 ft | 521 kts | 14° |
| 2026-05-06 18:05 | 49.12150 | 14.15409 | 38748 ft | 521 kts | 14° |
| 2026-05-06 18:05 | 49.19083 | 14.18720 | 38747 ft | 521 kts | 14° |
| 2026-05-06 18:06 | 49.26005 | 14.22035 | 38740 ft | 521 kts | 14° |
| 2026-05-06 18:06 | 49.32921 | 14.25356 | 38739 ft | 521 kts | 14° |
| 2026-05-06 18:07 | 49.38663 | 14.28124 | 38740 ft | 521 kts | 14° |
| 2026-05-06 18:07 | 49.46568 | 14.31942 | 38739 ft | 521 kts | 14° |
| 2026-05-06 18:08 | 49.53484 | 14.35295 | 38748 ft | 521 kts | 14° |
| 2026-05-06 18:08 | 49.59232 | 14.38089 | 38748 ft | 521 kts | 14° |
| 2026-05-06 18:09 | 49.66142 | 14.41457 | 38748 ft | 521 kts | 14° |
| 2026-05-06 18:09 | 49.73055 | 14.44837 | 38749 ft | 521 kts | 14° |
| 2026-05-06 18:10 | 49.79959 | 14.48219 | 38748 ft | 521 kts | 14° |
| 2026-05-06 18:10 | 49.86868 | 14.51614 | 38749 ft | 521 kts | 14° |
| 2026-05-06 18:11 | 49.93189 | 14.54729 | 38748 ft | 521 kts | 14° |
| 2026-05-06 18:11 | 50.00045 | 14.58122 | 38749 ft | 521 kts | 14° |
| 2026-05-06 18:12 | 50.06819 | 14.61492 | 38741 ft | 497 kts | 14° |
| 2026-05-06 18:12 | 50.13303 | 14.64726 | 38748 ft | 486 kts | 14° |
| 2026-05-06 18:13 | 50.19752 | 14.67941 | 38749 ft | 487 kts | 14° |
| 2026-05-06 18:13 | 50.26206 | 14.71162 | 38749 ft | 487 kts | 14° |
| 2026-05-06 18:14 | 50.32653 | 14.74391 | 38748 ft | 487 kts | 15° |
| 2026-05-06 18:14 | 50.39058 | 14.77614 | 38750 ft | 487 kts | 15° |
| 2026-05-06 18:15 | 50.45503 | 14.80867 | 38758 ft | 487 kts | 15° |
| 2026-05-06 18:15 | 50.51954 | 14.84132 | 38758 ft | 487 kts | 15° |
| 2026-05-06 18:16 | 50.58395 | 14.87401 | 38758 ft | 486 kts | 15° |
| 2026-05-06 18:16 | 50.64840 | 14.90680 | 38767 ft | 487 kts | 15° |
| 2026-05-06 18:17 | 50.71238 | 14.93950 | 38763 ft | 486 kts | 15° |
| 2026-05-06 18:17 | 50.77679 | 14.97243 | 38760 ft | 487 kts | 15° |
| 2026-05-06 18:18 | 50.84121 | 15.00549 | 38774 ft | 487 kts | 15° |
| 2026-05-06 18:18 | 50.90556 | 15.03864 | 38776 ft | 486 kts | 15° |
| 2026-05-06 18:19 | 50.96941 | 15.07158 | 38784 ft | 485 kts | 15° |
| 2026-05-06 18:19 | 51.03364 | 15.10457 | 38776 ft | 484 kts | 13° |
| 2026-05-06 18:20 | 51.09870 | 15.13143 | 38777 ft | 483 kts | 10° |
| 2026-05-06 18:20 | 51.16407 | 15.15587 | 38783 ft | 483 kts | 10° |
| 2026-05-06 18:21 | 51.22888 | 15.18106 | 38796 ft | 483 kts | 11° |
| 2026-05-06 18:21 | 51.29399 | 15.20721 | 38796 ft | 482 kts | 11° |
| 2026-05-06 18:22 | 51.35906 | 15.23367 | 38801 ft | 482 kts | 11° |
| 2026-05-06 18:22 | 51.42403 | 15.26017 | 38804 ft | 481 kts | 11° |
| 2026-05-06 18:23 | 51.48854 | 15.28650 | 38808 ft | 481 kts | 11° |
| 2026-05-06 18:23 | 51.55343 | 15.31302 | 38813 ft | 481 kts | 11° |
| 2026-05-06 18:24 | 51.61823 | 15.33954 | 38813 ft | 481 kts | 11° |
| 2026-05-06 18:24 | 51.68308 | 15.36621 | 38813 ft | 481 kts | 11° |
| 2026-05-06 18:25 | 51.74741 | 15.39278 | 38815 ft | 480 kts | 11° |
| 2026-05-06 18:25 | 51.81212 | 15.41960 | 38823 ft | 480 kts | 11° |
| 2026-05-06 18:26 | 51.87686 | 15.44648 | 38823 ft | 480 kts | 11° |
| 2026-05-06 18:26 | 51.94157 | 15.47341 | 38823 ft | 480 kts | 11° |
| 2026-05-06 18:27 | 52.00579 | 15.50017 | 38822 ft | 480 kts | 11° |
| 2026-05-06 18:27 | 52.07037 | 15.52724 | 38823 ft | 479 kts | 11° |
| 2026-05-06 18:28 | 52.13496 | 15.55441 | 38831 ft | 479 kts | 11° |
| 2026-05-06 18:28 | 52.19956 | 15.58166 | 38832 ft | 480 kts | 11° |
| 2026-05-06 18:29 | 52.26374 | 15.60873 | 38831 ft | 479 kts | 11° |
| 2026-05-06 18:29 | 52.32830 | 15.63609 | 38824 ft | 479 kts | 11° |
| 2026-05-06 18:30 | 52.39288 | 15.66356 | 38822 ft | 480 kts | 11° |
| 2026-05-06 18:30 | 52.45749 | 15.69113 | 38827 ft | 480 kts | 11° |
| 2026-05-06 18:31 | 52.52204 | 15.71873 | 38832 ft | 480 kts | 11° |
| 2026-05-06 18:31 | 52.58623 | 15.74626 | 38832 ft | 480 kts | 11° |
| 2026-05-06 18:32 | 52.65079 | 15.77409 | 38832 ft | 480 kts | 11° |
| 2026-05-06 18:32 | 52.71549 | 15.80203 | 38832 ft | 480 kts | 11° |
| 2026-05-06 18:33 | 52.78015 | 15.83003 | 38822 ft | 481 kts | 11° |
| 2026-05-06 18:33 | 52.84447 | 15.85797 | 38822 ft | 482 kts | 11° |
| 2026-05-06 18:34 | 52.90920 | 15.88614 | 38823 ft | 481 kts | 11° |
| 2026-05-06 18:34 | 52.97403 | 15.91445 | 38822 ft | 482 kts | 12° |
| 2026-05-06 18:35 | 53.03893 | 15.94291 | 38822 ft | 482 kts | 12° |
| 2026-05-06 18:35 | 53.10386 | 15.97146 | 38822 ft | 483 kts | 12° |
| 2026-05-06 18:36 | 53.16833 | 15.99991 | 38832 ft | 483 kts | 12° |
| 2026-05-06 18:36 | 53.23332 | 16.02866 | 38832 ft | 483 kts | 12° |
| 2026-05-06 18:37 | 53.29826 | 16.05748 | 38833 ft | 483 kts | 12° |
| 2026-05-06 18:37 | 53.36316 | 16.08640 | 38832 ft | 483 kts | 12° |
| 2026-05-06 18:38 | 53.42764 | 16.11518 | 38833 ft | 483 kts | 12° |
| 2026-05-06 18:38 | 53.49261 | 16.14429 | 38832 ft | 484 kts | 12° |
| 2026-05-06 18:39 | 53.55772 | 16.17357 | 38832 ft | 484 kts | 12° |
| 2026-05-06 18:40 | 53.65533 | 16.21765 | 38846 ft | 485 kts | 12° |
| 2026-05-06 18:40 | 53.72011 | 16.24699 | 38850 ft | 485 kts | 12° |
| 2026-05-06 18:41 | 53.78526 | 16.27659 | 38854 ft | 485 kts | 12° |
| 2026-05-06 18:41 | 53.85048 | 16.30634 | 38860 ft | 485 kts | 12° |
| 2026-05-06 18:42 | 53.91561 | 16.33617 | 38860 ft | 486 kts | 12° |
| 2026-05-06 18:42 | 53.98040 | 16.36591 | 38859 ft | 485 kts | 12° |
| 2026-05-06 18:43 | 54.04556 | 16.39590 | 38860 ft | 485 kts | 12° |
| 2026-05-06 18:43 | 54.11073 | 16.42599 | 38874 ft | 485 kts | 12° |
| 2026-05-06 18:44 | 54.17597 | 16.45623 | 38879 ft | 485 kts | 12° |
| 2026-05-06 18:44 | 54.24110 | 16.48650 | 38879 ft | 485 kts | 12° |
| 2026-05-06 18:45 | 54.30618 | 16.51687 | 38881 ft | 485 kts | 12° |
| 2026-05-06 18:45 | 54.37179 | 16.54758 | 38877 ft | 485 kts | 12° |
| 2026-05-06 18:46 | 54.43699 | 16.57817 | 38890 ft | 485 kts | 12° |
| 2026-05-06 18:46 | 54.50202 | 16.60883 | 38898 ft | 485 kts | 12° |
| 2026-05-06 18:47 | 54.56707 | 16.63958 | 38897 ft | 484 kts | 12° |
| 2026-05-06 18:47 | 54.63207 | 16.67041 | 38899 ft | 484 kts | 12° |
| 2026-05-06 18:48 | 54.69702 | 16.70136 | 38907 ft | 484 kts | 12° |
| 2026-05-06 18:48 | 54.76152 | 16.73213 | 38906 ft | 484 kts | 12° |
| 2026-05-06 18:49 | 54.82649 | 16.76324 | 38892 ft | 484 kts | 12° |
| 2026-05-06 18:49 | 54.89151 | 16.79448 | 38897 ft | 485 kts | 12° |
| 2026-05-06 18:50 | 54.95644 | 16.82573 | 38895 ft | 483 kts | 12° |
| 2026-05-06 18:50 | 55.02050 | 16.85683 | 38896 ft | 475 kts | 12° |
| 2026-05-06 18:51 | 55.08355 | 16.88746 | 38900 ft | 475 kts | 12° |
| 2026-05-06 18:51 | 55.14792 | 16.91871 | 38932 ft | 484 kts | 12° |
| 2026-05-06 18:52 | 55.21294 | 16.95048 | 38930 ft | 485 kts | 12° |
| 2026-05-06 18:52 | 55.27784 | 16.98233 | 38936 ft | 484 kts | 12° |
| 2026-05-06 18:53 | 55.34228 | 17.01405 | 38931 ft | 484 kts | 13° |
| 2026-05-06 18:53 | 55.40711 | 17.04608 | 38946 ft | 484 kts | 13° |
| 2026-05-06 18:54 | 55.47189 | 17.07818 | 38942 ft | 484 kts | 13° |
| 2026-05-06 18:54 | 55.53667 | 17.11039 | 38943 ft | 484 kts | 13° |
| 2026-05-06 18:55 | 55.60100 | 17.14258 | 38949 ft | 484 kts | 13° |
| 2026-05-06 18:55 | 55.66360 | 17.18705 | 38954 ft | 488 kts | 25° |
| 2026-05-06 18:56 | 55.72350 | 17.24445 | 38953 ft | 489 kts | 27° |
| 2026-05-06 18:56 | 55.78276 | 17.30365 | 38957 ft | 489 kts | 27° |
| 2026-05-06 18:57 | 55.84197 | 17.36323 | 38962 ft | 488 kts | 27° |
| 2026-05-06 18:57 | 55.90074 | 17.42230 | 38962 ft | 489 kts | 27° |
| 2026-05-06 18:58 | 55.96003 | 17.48190 | 38962 ft | 489 kts | 27° |
| 2026-05-06 18:58 | 56.01927 | 17.54169 | 38962 ft | 489 kts | 27° |
| 2026-05-06 18:59 | 56.07816 | 17.60129 | 38971 ft | 489 kts | 27° |
| 2026-05-06 18:59 | 56.13733 | 17.66141 | 38971 ft | 489 kts | 27° |
| 2026-05-06 19:00 | 56.19652 | 17.72176 | 38970 ft | 489 kts | 27° |
| 2026-05-06 19:00 | 56.25565 | 17.78231 | 38970 ft | 489 kts | 27° |
| 2026-05-06 19:01 | 56.31475 | 17.84302 | 38970 ft | 489 kts | 27° |
| 2026-05-06 19:01 | 56.37347 | 17.90359 | 38972 ft | 489 kts | 28° |
| 2026-05-06 19:02 | 56.43249 | 17.96466 | 38972 ft | 489 kts | 28° |
| 2026-05-06 19:02 | 56.49152 | 18.02594 | 38969 ft | 489 kts | 28° |
| 2026-05-06 19:03 | 56.55053 | 18.08739 | 38984 ft | 490 kts | 28° |
| 2026-05-06 19:03 | 56.60923 | 18.14881 | 38983 ft | 490 kts | 28° |
| 2026-05-06 19:04 | 56.66818 | 18.21075 | 38982 ft | 490 kts | 28° |
| 2026-05-06 19:04 | 56.72714 | 18.27290 | 38980 ft | 490 kts | 28° |
| 2026-05-06 19:05 | 56.78604 | 18.33518 | 38979 ft | 489 kts | 28° |
| 2026-05-06 19:05 | 56.84491 | 18.39765 | 38980 ft | 490 kts | 28° |
| 2026-05-06 19:06 | 56.90348 | 18.46004 | 38982 ft | 490 kts | 28° |
| 2026-05-06 19:06 | 56.96232 | 18.52298 | 38978 ft | 490 kts | 28° |
| 2026-05-06 19:07 | 57.02123 | 18.58618 | 38979 ft | 490 kts | 28° |
| 2026-05-06 19:07 | 57.08009 | 18.64955 | 38979 ft | 490 kts | 28° |
| 2026-05-06 19:08 | 57.13887 | 18.71314 | 38981 ft | 490 kts | 28° |
| 2026-05-06 19:08 | 57.19720 | 18.77644 | 38990 ft | 490 kts | 28° |
| 2026-05-06 19:09 | 57.25595 | 18.84040 | 38989 ft | 490 kts | 28° |
| 2026-05-06 19:09 | 57.31464 | 18.90457 | 38992 ft | 491 kts | 28° |
| 2026-05-06 19:10 | 57.37343 | 18.96898 | 38991 ft | 490 kts | 28° |
| 2026-05-06 19:10 | 57.43210 | 19.03363 | 38987 ft | 491 kts | 28° |
| 2026-05-06 19:11 | 57.49078 | 19.09859 | 38987 ft | 491 kts | 28° |
| 2026-05-06 19:11 | 57.54903 | 19.16328 | 38985 ft | 491 kts | 28° |
| 2026-05-06 19:12 | 57.60765 | 19.22857 | 38986 ft | 491 kts | 28° |
| 2026-05-06 19:12 | 57.66626 | 19.29412 | 38986 ft | 491 kts | 28° |
| 2026-05-06 19:13 | 57.72493 | 19.35999 | 38988 ft | 492 kts | 28° |
| 2026-05-06 19:13 | 57.78346 | 19.42598 | 38988 ft | 491 kts | 29° |
| 2026-05-06 19:14 | 57.84205 | 19.49227 | 38991 ft | 491 kts | 28° |
| 2026-05-06 19:14 | 57.90054 | 19.55867 | 38986 ft | 491 kts | 28° |
| 2026-05-06 19:15 | 57.95864 | 19.62489 | 38993 ft | 492 kts | 29° |
| 2026-05-06 19:15 | 58.01719 | 19.69189 | 38993 ft | 492 kts | 29° |
| 2026-05-06 19:16 | 58.07570 | 19.75911 | 38991 ft | 492 kts | 29° |
| 2026-05-06 19:16 | 58.13418 | 19.82655 | 39005 ft | 492 kts | 29° |
| 2026-05-06 19:17 | 58.19226 | 19.89378 | 38991 ft | 493 kts | 29° |
| 2026-05-06 19:17 | 58.25065 | 19.96166 | 38987 ft | 492 kts | 29° |
| 2026-05-06 19:18 | 58.30904 | 20.02982 | 39004 ft | 492 kts | 29° |
| 2026-05-06 19:18 | 58.36741 | 20.09819 | 39005 ft | 493 kts | 29° |
| 2026-05-06 19:19 | 58.42573 | 20.16678 | 38997 ft | 493 kts | 29° |
| 2026-05-06 19:19 | 58.48368 | 20.23514 | 38995 ft | 493 kts | 29° |
| 2026-05-06 19:20 | 58.54195 | 20.30412 | 38991 ft | 493 kts | 29° |
| 2026-05-06 19:20 | 58.60025 | 20.37355 | 39006 ft | 493 kts | 29° |
| 2026-05-06 19:21 | 58.65851 | 20.44327 | 39003 ft | 494 kts | 29° |
| 2026-05-06 19:21 | 58.71637 | 20.51268 | 39002 ft | 494 kts | 29° |
| 2026-05-06 19:22 | 58.77461 | 20.58281 | 39009 ft | 494 kts | 29° |
| 2026-05-06 19:22 | 58.83289 | 20.65329 | 39000 ft | 495 kts | 29° |
| 2026-05-06 19:23 | 58.89116 | 20.72403 | 39025 ft | 495 kts | 29° |
| 2026-05-06 19:23 | 58.94936 | 20.79494 | 39015 ft | 494 kts | 29° |
| 2026-05-06 19:24 | 59.00711 | 20.86591 | 39010 ft | 495 kts | 31° |
| 2026-05-06 19:24 | 59.05924 | 20.95374 | 39027 ft | 499 kts | 48° |
| 2026-05-06 19:25 | 59.09949 | 21.06381 | 39026 ft | 500 kts | 57° |
| 2026-05-06 19:25 | 59.13720 | 21.17792 | 39008 ft | 501 kts | 57° |
| 2026-05-06 19:26 | 59.17454 | 21.29264 | 38993 ft | 501 kts | 57° |
| 2026-05-06 19:26 | 59.19296 | 21.34956 | 38842 ft | 492 kts | 58° |
| 2026-05-06 19:26 | 59.21116 | 21.40598 | 38602 ft | 492 kts | 58° |
| 2026-05-06 19:26 | 59.22940 | 21.46268 | 38353 ft | 494 kts | 58° |
| 2026-05-06 19:27 | 59.24739 | 21.51879 | 38114 ft | 495 kts | 58° |
| 2026-05-06 19:27 | 59.26570 | 21.57599 | 37857 ft | 497 kts | 58° |
| 2026-05-06 19:27 | 59.28401 | 21.63333 | 37616 ft | 497 kts | 58° |
| 2026-05-06 19:27 | 59.30228 | 21.69072 | 37175 ft | 498 kts | 58° |
| 2026-05-06 19:28 | 59.32062 | 21.74844 | 36615 ft | 499 kts | 58° |
| 2026-05-06 19:28 | 59.33890 | 21.80615 | 36054 ft | 499 kts | 58° |
| 2026-05-06 19:28 | 59.35721 | 21.86409 | 35472 ft | 501 kts | 59° |
| 2026-05-06 19:28 | 59.37563 | 21.92251 | 34901 ft | 506 kts | 59° |
| 2026-05-06 19:29 | 59.39420 | 21.98155 | 34337 ft | 511 kts | 59° |
| 2026-05-06 19:29 | 59.41293 | 22.04126 | 33747 ft | 515 kts | 59° |
| 2026-05-06 19:29 | 59.43172 | 22.10130 | 33191 ft | 517 kts | 59° |
| 2026-05-06 19:29 | 59.45057 | 22.16172 | 32609 ft | 519 kts | 59° |
| 2026-05-06 19:30 | 59.46943 | 22.22231 | 32045 ft | 520 kts | 59° |
| 2026-05-06 19:30 | 59.48833 | 22.28321 | 31473 ft | 521 kts | 59° |
| 2026-05-06 19:30 | 59.50717 | 22.34405 | 30900 ft | 522 kts | 60° |
| 2026-05-06 19:30 | 59.52583 | 22.40446 | 30331 ft | 523 kts | 60° |
| 2026-05-06 19:31 | 59.54470 | 22.46566 | 29752 ft | 518 kts | 60° |
| 2026-05-06 19:31 | 59.56302 | 22.52528 | 29167 ft | 501 kts | 60° |
| 2026-05-06 19:31 | 59.59810 | 22.63991 | 28031 ft | 483 kts | 60° |
| 2026-05-06 19:32 | 59.61542 | 22.69682 | 27451 ft | 483 kts | 60° |
| 2026-05-06 19:32 | 59.63254 | 22.75311 | 26872 ft | 472 kts | 60° |
| 2026-05-06 19:32 | 59.64924 | 22.80811 | 26294 ft | 462 kts | 60° |
| 2026-05-06 19:32 | 59.66538 | 22.86142 | 25730 ft | 454 kts | 60° |
| 2026-05-06 19:33 | 59.68134 | 22.91428 | 25291 ft | 443 kts | 60° |
| 2026-05-06 19:33 | 59.69702 | 22.96630 | 24858 ft | 437 kts | 59° |
| 2026-05-06 19:33 | 59.71249 | 23.01785 | 24453 ft | 437 kts | 60° |
| 2026-05-06 19:33 | 59.72797 | 23.06945 | 24024 ft | 433 kts | 60° |
| 2026-05-06 19:34 | 59.74336 | 23.12085 | 23597 ft | 432 kts | 60° |
| 2026-05-06 19:34 | 59.75869 | 23.17208 | 23165 ft | 431 kts | 60° |
| 2026-05-06 19:34 | 59.77390 | 23.22309 | 22742 ft | 428 kts | 59° |
| 2026-05-06 19:34 | 59.78903 | 23.27373 | 22348 ft | 424 kts | 60° |
| 2026-05-06 19:35 | 59.80395 | 23.32406 | 21939 ft | 423 kts | 60° |
| 2026-05-06 19:35 | 59.81854 | 23.37388 | 21543 ft | 421 kts | 60° |
| 2026-05-06 19:35 | 59.83331 | 23.42378 | 21135 ft | 417 kts | 59° |
| 2026-05-06 19:35 | 59.84789 | 23.47313 | 20743 ft | 413 kts | 59° |
| 2026-05-06 19:36 | 59.86232 | 23.52219 | 20357 ft | 408 kts | 59° |
| 2026-05-06 19:36 | 59.87644 | 23.57032 | 19989 ft | 405 kts | 59° |
| 2026-05-06 19:36 | 59.89055 | 23.61857 | 19618 ft | 400 kts | 59° |
| 2026-05-06 19:36 | 59.90448 | 23.66616 | 19233 ft | 396 kts | 59° |
| 2026-05-06 19:37 | 59.91817 | 23.71330 | 18857 ft | 391 kts | 59° |
| 2026-05-06 19:37 | 59.93178 | 23.76003 | 18491 ft | 390 kts | 58° |
| 2026-05-06 19:37 | 59.94535 | 23.80648 | 18114 ft | 386 kts | 58° |
| 2026-05-06 19:37 | 59.95423 | 23.83700 | 17863 ft | 383 kts | 58° |
| 2026-05-06 19:38 | 59.97178 | 23.89754 | 17378 ft | 377 kts | 58° |
| 2026-05-06 19:38 | 59.98478 | 23.94253 | 17025 ft | 372 kts | 59° |
| 2026-05-06 19:38 | 59.99756 | 23.98706 | 16680 ft | 368 kts | 59° |
| 2026-05-06 19:38 | 60.01021 | 24.03106 | 16329 ft | 365 kts | 58° |
| 2026-05-06 19:39 | 60.02281 | 24.07496 | 15979 ft | 362 kts | 58° |
| 2026-05-06 19:39 | 60.03525 | 24.11836 | 15632 ft | 359 kts | 58° |
| 2026-05-06 19:39 | 60.04758 | 24.16150 | 15279 ft | 355 kts | 58° |
| 2026-05-06 19:39 | 60.05960 | 24.20361 | 14940 ft | 352 kts | 58° |
| 2026-05-06 19:40 | 60.07166 | 24.24595 | 14589 ft | 348 kts | 58° |
| 2026-05-06 19:40 | 60.08357 | 24.28784 | 14235 ft | 345 kts | 58° |
| 2026-05-06 19:40 | 60.09553 | 24.32997 | 13885 ft | 341 kts | 58° |
| 2026-05-06 19:40 | 60.10706 | 24.37064 | 13539 ft | 338 kts | 58° |
| 2026-05-06 19:41 | 60.11874 | 24.41189 | 13179 ft | 334 kts | 58° |
| 2026-05-06 19:41 | 60.13000 | 24.45179 | 12839 ft | 331 kts | 58° |
| 2026-05-06 19:41 | 60.14124 | 24.49169 | 12485 ft | 326 kts | 58° |
| 2026-05-06 19:41 | 60.15234 | 24.53114 | 12130 ft | 322 kts | 58° |
| 2026-05-06 19:42 | 60.16323 | 24.56993 | 11784 ft | 317 kts | 58° |
| 2026-05-06 19:42 | 60.17397 | 24.60823 | 11432 ft | 312 kts | 58° |
| 2026-05-06 19:42 | 60.18456 | 24.64599 | 11085 ft | 308 kts | 59° |
| 2026-05-06 19:42 | 60.19493 | 24.68309 | 10728 ft | 303 kts | 59° |
| 2026-05-06 19:43 | 60.20515 | 24.71968 | 10386 ft | 299 kts | 59° |
| 2026-05-06 19:43 | 60.21519 | 24.75572 | 10036 ft | 295 kts | 59° |
| 2026-05-06 19:43 | 60.22515 | 24.79155 | 9682 ft | 291 kts | 59° |
| 2026-05-06 19:43 | 60.23494 | 24.82680 | 9334 ft | 287 kts | 60° |
| 2026-05-06 19:44 | 60.24443 | 24.86099 | 8984 ft | 282 kts | 60° |
| 2026-05-06 19:44 | 60.25393 | 24.89534 | 8634 ft | 279 kts | 60° |
| 2026-05-06 19:44 | 60.26326 | 24.92905 | 8284 ft | 275 kts | 60° |
| 2026-05-06 19:44 | 60.27246 | 24.96238 | 7926 ft | 268 kts | 60° |
| 2026-05-06 19:45 | 60.28144 | 24.99496 | 7580 ft | 265 kts | 60° |
| 2026-05-06 19:45 | 60.29032 | 25.02720 | 7230 ft | 262 kts | 60° |
| 2026-05-06 19:45 | 60.29911 | 25.05919 | 6926 ft | 258 kts | 60° |
| 2026-05-06 19:45 | 60.30772 | 25.09056 | 6642 ft | 253 kts | 60° |
| 2026-05-06 19:46 | 60.31616 | 25.12133 | 6364 ft | 249 kts | 60° |
| 2026-05-06 19:46 | 60.32445 | 25.15161 | 6084 ft | 244 kts | 60° |
| 2026-05-06 19:46 | 60.33261 | 25.18144 | 5812 ft | 241 kts | 60° |
| 2026-05-06 19:46 | 60.34051 | 25.21039 | 5534 ft | 237 kts | 60° |
| 2026-05-06 19:47 | 60.34840 | 25.23935 | 5263 ft | 234 kts | 60° |
| 2026-05-06 19:47 | 60.35623 | 25.26810 | 5014 ft | 233 kts | 60° |
| 2026-05-06 19:47 | 60.36406 | 25.29669 | 4800 ft | 231 kts | 59° |
| 2026-05-06 19:47 | 60.37318 | 25.32245 | 4588 ft | 221 kts | 49° |
| 2026-05-06 19:48 | 60.38363 | 25.34488 | 4202 ft | 219 kts | 40° |
| 2026-05-06 19:48 | 60.39688 | 25.35913 | 3778 ft | 216 kts | 12° |
| 2026-05-06 19:48 | 60.41152 | 25.35842 | 3385 ft | 211 kts | 342° |
| 2026-05-06 19:48 | 60.42401 | 25.34401 | 3043 ft | 205 kts | 319° |
| 2026-05-06 19:49 | 60.43450 | 25.32503 | 2766 ft | 199 kts | 315° |
| 2026-05-06 19:49 | 60.44426 | 25.30646 | 2532 ft | 192 kts | 314° |
| 2026-05-06 19:49 | 60.45175 | 25.28530 | 2315 ft | 180 kts | 289° |
| 2026-05-06 19:49 | 60.45119 | 25.26166 | 2286 ft | 166 kts | 251° |
| 2026-05-06 19:50 | 60.44651 | 25.24045 | 2282 ft | 165 kts | 242° |
| 2026-05-06 19:50 | 60.43983 | 25.22147 | 2302 ft | 166 kts | 230° |
| 2026-05-06 19:50 | 60.43216 | 25.20398 | 2290 ft | 166 kts | 230° |
| 2026-05-06 19:50 | 60.42440 | 25.18655 | 2292 ft | 167 kts | 229° |
| 2026-05-06 19:51 | 60.41652 | 25.16921 | 2283 ft | 168 kts | 228° |
| 2026-05-06 19:51 | 60.40840 | 25.15212 | 2240 ft | 171 kts | 226° |
| 2026-05-06 19:51 | 60.40026 | 25.13486 | 2126 ft | 168 kts | 228° |
| 2026-05-06 19:51 | 60.39284 | 25.11715 | 2057 ft | 164 kts | 232° |
| 2026-05-06 19:52 | 60.38592 | 25.09994 | 1826 ft | 153 kts | 229° |
| 2026-05-06 19:52 | 60.37860 | 25.08557 | 1710 ft | 141 kts | 224° |
| 2026-05-06 19:52 | 60.37189 | 25.07064 | 1617 ft | 148 kts | 230° |
| 2026-05-06 19:52 | 60.36514 | 25.05509 | 1353 ft | 146 kts | 228° |
| 2026-05-06 19:53 | 60.35829 | 25.04013 | 1077 ft | 143 kts | 227° |
| 2026-05-06 19:53 | 60.35167 | 25.02518 | 883 ft | 143 kts | 231° |
| 2026-05-06 19:53 | 60.34486 | 25.01058 | 666 ft | 144 kts | 225° |
| 2026-05-06 19:53 | 60.33821 | 24.99562 | 448 ft | 143 kts | 229° |
| 2026-05-06 19:54 | 60.33156 | 24.98092 | 253 ft | 142 kts | 228° |
| 2026-05-06 19:54 | 60.32497 | 24.96651 | 183 ft | 134 kts | 228° |
| 2026-05-06 19:54 | 60.31937 | 24.95404 | 179 ft | 108 kts | 225° |
| 2026-05-06 19:54 | 60.31595 | 24.94671 | 171 ft | 23 kts | 226° |
| 2026-05-06 19:55 | 60.31501 | 24.94588 | 170 ft | 17 kts | 182° |
| 2026-05-06 19:55 | 60.31425 | 24.94683 | 170 ft | 13 kts | 134° |
| 2026-05-06 19:55 | 60.31414 | 24.94796 | 171 ft | 6 kts | 73° |
| 2026-05-06 19:55 | 60.31433 | 24.94861 | 172 ft | 5 kts | 54° |
| 2026-05-06 19:56 | 60.31455 | 24.94916 | 174 ft | 6 kts | 50° |
| 2026-05-06 19:56 | 60.31484 | 24.94985 | 174 ft | 7 kts | 50° |
| 2026-05-06 19:56 | 60.31520 | 24.95075 | 176 ft | 9 kts | 50° |
| 2026-05-06 19:56 | 60.31567 | 24.95177 | 176 ft | 11 kts | 44° |
| 2026-05-06 19:57 | 60.31627 | 24.95300 | 176 ft | 13 kts | 47° |
| 2026-05-06 19:57 | 60.31685 | 24.95441 | 176 ft | 10 kts | 65° |
| 2026-05-06 19:57 | 60.31673 | 24.95587 | 173 ft | 12 kts | 126° |
| 2026-05-06 19:57 | 60.31597 | 24.95638 | 173 ft | 11 kts | 195° |
| 2026-05-06 19:58 | 60.31549 | 24.95561 | 173 ft | 10 kts | 224° |
| 2026-05-06 19:58 | 60.31516 | 24.95487 | 173 ft | 12 kts | 231° |
| 2026-05-06 19:58 | 60.31482 | 24.95405 | 173 ft | 8 kts | 225° |
| 2026-05-06 19:58 | 60.31428 | 24.95308 | 173 ft | 2 kts | 185° |
| 2026-05-06 19:59 | 60.31416 | 24.95320 | 173 ft | 3 kts | 156° |
| 2026-05-06 19:59 | 60.31391 | 24.95352 | 173 ft | 6 kts | 144° |
| 2026-05-06 19:59 | 60.31369 | 24.95389 | 173 ft | 0 kts | 140° |